createdAt,value
2023-04-18T00:00:28.307Z,22.70
2023-04-18T00:01:28.969Z,21.80
2023-04-18T00:02:29.800Z,21.50
2023-04-18T00:03:30.520Z,21.50
2023-04-18T00:04:30.288Z,22.60
2023-04-18T00:05:30.430Z,21.50
2023-04-18T00:06:31.074Z,21.30
2023-04-18T00:07:31.749Z,22.00
2023-04-18T00:08:32.428Z,21.50
2023-04-18T00:09:33.091Z,21.90
2023-04-18T00:10:33.758Z,21.10
2023-04-18T00:11:34.419Z,21.00
2023-04-18T00:12:35.069Z,20.90
2023-04-18T00:13:35.704Z,21.50
2023-04-18T00:14:36.320Z,20.70
2023-04-18T00:15:36.947Z,21.60
2023-04-18T00:16:37.614Z,20.20
2023-04-18T00:17:37.815Z,20.20
2023-04-18T00:18:38.473Z,20.40
2023-04-18T00:19:39.126Z,20.80
2023-04-18T00:20:39.757Z,21.10
2023-04-18T00:21:40.401Z,21.30
2023-04-18T00:22:41.026Z,21.30
2023-04-18T00:23:41.689Z,21.50
2023-04-18T00:24:42.359Z,21.90
2023-04-18T00:25:43.019Z,20.90
2023-04-18T00:26:43.646Z,21.00
2023-04-18T00:27:44.269Z,20.50
2023-04-18T00:28:44.917Z,21.00
2023-04-18T00:29:45.568Z,21.90
2023-04-18T00:30:46.301Z,20.30
2023-04-18T00:31:46.377Z,20.20
2023-04-18T00:32:47.066Z,20.90
2023-04-18T00:33:47.711Z,20.40
2023-04-18T00:34:48.343Z,20.90
2023-04-18T00:35:49.005Z,20.60
2023-04-18T00:36:49.640Z,21.40
2023-04-18T00:37:50.278Z,20.60
2023-04-18T00:38:50.917Z,20.30
2023-04-18T00:39:51.555Z,19.40
2023-04-18T00:40:52.194Z,20.20
2023-04-18T00:41:52.831Z,20.60
2023-04-18T00:42:53.496Z,20.30
2023-04-18T00:43:54.151Z,20.50
2023-04-18T00:44:54.793Z,19.90
2023-04-18T00:45:55.455Z,19.30
2023-04-18T00:46:56.100Z,20.80
2023-04-18T00:47:56.832Z,21.30
2023-04-18T00:48:56.913Z,19.80
2023-04-18T00:49:57.579Z,19.80
2023-04-18T00:50:58.207Z,20.50
2023-04-18T00:51:58.820Z,20.70
2023-04-18T00:52:59.429Z,21.00
2023-04-18T00:54:00.052Z,20.40
2023-04-18T00:55:00.711Z,19.40
2023-04-18T00:56:01.368Z,19.50
2023-04-18T00:57:02.072Z,19.20
2023-04-18T00:58:02.187Z,19.80
2023-04-18T00:59:02.874Z,20.60
2023-04-18T01:00:03.539Z,19.80
2023-04-18T01:01:04.226Z,18.60
2023-04-18T01:02:05.213Z,18.70
2023-04-18T01:03:05.509Z,18.90
2023-04-18T01:04:05.746Z,18.70
2023-04-18T01:05:05.837Z,19.00
2023-04-18T01:06:06.470Z,18.60
2023-04-18T01:07:07.133Z,19.10
2023-04-18T01:08:07.786Z,18.10
2023-04-18T01:09:08.416Z,17.50
2023-04-18T01:10:09.041Z,18.30
2023-04-18T01:11:09.686Z,18.40
2023-04-18T01:12:10.343Z,17.50
2023-04-18T01:13:10.971Z,18.20
2023-04-18T01:14:11.827Z,18.50
2023-04-18T01:15:12.059Z,17.80
2023-04-18T01:16:12.728Z,18.20
2023-04-18T01:17:13.509Z,17.90
2023-04-18T01:21:45.815Z,18.00
2023-04-18T01:22:46.986Z,17.10
2023-04-18T01:23:47.531Z,18.20
2023-04-18T01:24:48.089Z,18.10
2023-04-18T01:25:48.663Z,17.40
2023-04-18T01:26:49.227Z,17.80
2023-04-18T01:27:49.771Z,16.90
2023-04-18T01:28:50.334Z,16.50
2023-04-18T01:29:50.901Z,16.90
2023-04-18T01:30:51.514Z,17.10
2023-04-18T01:31:51.579Z,16.20
2023-04-18T01:32:52.176Z,16.10
2023-04-18T01:33:52.742Z,16.80
2023-04-18T01:34:53.313Z,16.50
2023-04-18T01:35:53.878Z,15.30
2023-04-18T01:36:54.442Z,16.70
2023-04-18T01:37:55.011Z,16.90
2023-04-18T01:38:55.602Z,16.00
2023-04-18T01:39:57.162Z,16.80
2023-04-18T01:40:56.563Z,16.50
2023-04-18T01:41:57.129Z,15.90
2023-04-18T01:42:57.697Z,16.60
2023-04-18T01:43:58.267Z,16.10
2023-04-18T01:44:58.826Z,16.40
2023-04-18T01:45:59.413Z,15.50
2023-04-18T01:47:00.070Z,16.70
2023-04-18T01:48:00.169Z,16.60
2023-04-18T01:49:00.227Z,15.90
2023-04-18T01:50:00.843Z,16.60
2023-04-18T01:51:01.425Z,16.60
2023-04-18T01:52:02.032Z,16.20
2023-04-18T01:53:02.639Z,15.90
2023-04-18T01:54:03.217Z,16.00
2023-04-18T01:55:03.826Z,16.20
2023-04-18T01:56:04.413Z,17.10
2023-04-18T01:57:05.003Z,16.50
2023-04-18T01:58:05.589Z,16.60
2023-04-18T01:59:06.151Z,16.60
2023-04-18T02:00:06.750Z,14.70
2023-04-18T02:01:07.434Z,17.10
2023-04-18T02:02:07.502Z,16.60
2023-04-18T02:03:07.679Z,16.60
2023-04-18T02:04:07.908Z,16.50
2023-04-18T02:05:08.057Z,16.00
2023-04-18T02:06:08.620Z,15.90
2023-04-18T02:07:09.206Z,16.10
2023-04-18T02:08:09.791Z,16.80
2023-04-18T02:09:10.359Z,-1.00
2023-04-18T02:10:10.946Z,15.60
2023-04-18T02:11:11.554Z,16.00
2023-04-18T02:12:12.128Z,16.50
2023-04-18T02:13:12.717Z,16.50
2023-04-18T02:14:13.473Z,16.70
2023-04-18T02:15:13.577Z,16.70
2023-04-18T02:16:14.241Z,16.60
2023-04-18T02:17:14.330Z,16.60
2023-04-18T02:18:14.891Z,16.40
2023-04-18T02:19:15.442Z,16.70
2023-04-18T02:20:16.020Z,15.50
2023-04-18T02:21:16.585Z,16.40
2023-04-18T02:22:17.153Z,15.70
2023-04-18T02:23:17.706Z,16.10
2023-04-18T02:24:18.247Z,15.50
2023-04-18T02:25:18.799Z,16.20
2023-04-18T02:26:19.357Z,16.50
2023-04-18T02:27:19.924Z,16.00
2023-04-18T02:28:20.486Z,15.40
2023-04-18T02:29:21.057Z,16.70
2023-04-18T02:30:21.627Z,16.60
2023-04-18T02:31:22.232Z,16.10
2023-04-18T02:32:22.897Z,16.70
2023-04-18T02:33:22.898Z,16.20
2023-04-18T02:34:23.470Z,16.70
2023-04-18T02:35:24.046Z,16.60
2023-04-18T02:36:24.673Z,16.70
2023-04-18T02:37:25.256Z,16.70
2023-04-18T02:38:25.824Z,16.20
2023-04-18T02:39:26.407Z,-1.00
2023-04-18T02:40:26.975Z,15.80
2023-04-18T02:41:27.532Z,16.00
2023-04-18T02:42:28.077Z,16.40
2023-04-18T02:43:28.642Z,16.60
2023-04-18T02:44:29.214Z,17.50
2023-04-18T02:45:29.778Z,17.50
2023-04-18T02:46:30.396Z,16.30
2023-04-18T02:47:33.372Z,16.70
2023-04-18T02:48:30.696Z,17.10
2023-04-18T02:49:31.275Z,16.70
2023-04-18T02:50:31.833Z,15.80
2023-04-18T02:51:32.406Z,17.00
2023-04-18T02:52:32.956Z,16.90
2023-04-18T02:53:33.522Z,16.80
2023-04-18T02:54:34.093Z,16.50
2023-04-18T02:55:34.639Z,16.50
2023-04-18T02:56:35.230Z,16.60
2023-04-18T02:57:35.821Z,16.60
2023-04-18T02:58:36.376Z,16.60
2023-04-18T02:59:36.934Z,16.00
2023-04-18T03:00:37.500Z,17.50
2023-04-18T03:01:38.153Z,17.00
2023-04-18T03:02:38.203Z,16.30
2023-04-18T03:03:38.261Z,17.10
2023-04-18T03:04:38.882Z,17.20
2023-04-18T03:05:38.881Z,17.10
2023-04-18T03:06:39.414Z,16.90
2023-04-18T03:07:39.975Z,16.50
2023-04-18T03:08:40.521Z,17.50
2023-04-18T03:09:41.088Z,17.70
2023-04-18T03:10:41.658Z,16.80
2023-04-18T03:11:42.220Z,16.60
2023-04-18T03:12:42.783Z,17.20
2023-04-18T03:13:43.334Z,17.40
2023-04-18T03:14:43.871Z,16.90
2023-04-18T03:15:44.446Z,16.70
2023-04-18T03:16:45.043Z,17.10
2023-04-18T03:17:45.617Z,17.30
2023-04-18T03:18:46.166Z,17.60
2023-04-18T03:19:46.722Z,17.60
2023-04-18T03:20:47.301Z,17.80
2023-04-18T03:21:47.870Z,17.60
2023-04-18T03:22:48.417Z,16.90
2023-04-18T03:23:48.994Z,18.10
2023-04-18T03:24:49.573Z,17.70
2023-04-18T03:25:50.134Z,17.40
2023-04-18T03:26:50.695Z,17.20
2023-04-18T03:27:51.234Z,17.00
2023-04-18T03:28:51.830Z,17.40
2023-04-18T03:29:52.391Z,16.80
2023-04-18T03:30:52.951Z,18.30
2023-04-18T03:31:53.524Z,18.20
2023-04-18T03:32:54.122Z,18.60
2023-04-18T03:33:54.712Z,17.40
2023-04-18T03:34:55.273Z,18.10
2023-04-18T03:35:55.808Z,18.50
2023-04-18T03:36:56.359Z,18.20
2023-04-18T03:37:56.914Z,18.00
2023-04-18T03:38:57.463Z,18.20
2023-04-18T03:39:58.036Z,18.60
2023-04-18T03:40:58.605Z,17.50
2023-04-18T03:41:59.163Z,18.50
2023-04-18T03:42:59.748Z,18.30
2023-04-18T03:44:00.302Z,18.00
2023-04-18T03:45:00.867Z,17.50
2023-04-18T03:46:01.446Z,18.00
2023-04-18T03:47:02.029Z,18.50
2023-04-18T03:48:02.612Z,18.60
2023-04-18T03:49:03.186Z,19.20
2023-04-18T03:50:03.748Z,17.80
2023-04-18T03:51:04.316Z,18.00
2023-04-18T03:52:04.883Z,18.20
2023-04-18T03:53:05.435Z,18.20
2023-04-18T03:54:05.998Z,17.90
2023-04-18T03:55:06.567Z,18.60
2023-04-18T03:56:07.149Z,17.60
2023-04-18T03:57:07.773Z,18.10
2023-04-18T03:58:08.352Z,18.10
2023-04-18T03:59:08.955Z,18.00
2023-04-18T04:00:09.547Z,17.30
2023-04-18T04:01:10.115Z,17.90
2023-04-18T04:02:10.693Z,17.80
2023-04-18T04:03:10.829Z,17.60
2023-04-18T04:04:11.145Z,17.60
2023-04-18T04:05:11.284Z,18.50
2023-04-18T04:06:11.281Z,17.70
2023-04-18T04:07:11.854Z,17.50
2023-04-18T04:08:12.413Z,17.40
2023-04-18T04:09:12.960Z,18.00
2023-04-18T04:10:13.521Z,17.00
2023-04-18T04:11:14.082Z,17.60
2023-04-18T04:12:14.639Z,18.40
2023-04-18T04:13:15.189Z,17.10
2023-04-18T04:14:15.964Z,17.70
2023-04-18T04:15:16.146Z,17.80
2023-04-18T04:16:16.733Z,17.70
2023-04-18T04:17:16.757Z,18.20
2023-04-18T04:18:17.308Z,18.20
2023-04-18T04:19:17.856Z,19.10
2023-04-18T04:20:18.401Z,18.20
2023-04-18T04:21:21.057Z,19.30
2023-04-18T04:22:19.435Z,19.50
2023-04-18T04:23:20.016Z,18.30
2023-04-18T04:24:20.576Z,18.80
2023-04-18T04:25:21.132Z,20.10
2023-04-18T04:26:21.688Z,20.50
2023-04-18T04:27:22.228Z,21.20
2023-04-18T04:28:22.783Z,20.80
2023-04-18T04:29:23.339Z,20.40
2023-04-18T04:30:23.880Z,19.20
2023-04-18T04:31:24.489Z,19.60
2023-04-18T04:32:25.153Z,19.10
2023-04-18T04:33:25.227Z,18.60
2023-04-18T04:34:25.774Z,18.60
2023-04-18T04:35:26.341Z,19.30
2023-04-18T04:36:26.907Z,18.70
2023-04-18T04:37:27.477Z,19.40
2023-04-18T04:38:28.062Z,19.40
2023-04-18T04:39:28.627Z,19.20
2023-04-18T04:40:29.186Z,19.50
2023-04-18T04:41:29.769Z,19.60
2023-04-18T04:42:30.342Z,19.00
2023-04-18T04:43:30.931Z,19.70
2023-04-18T04:44:31.530Z,19.20
2023-04-18T04:45:32.161Z,19.00
2023-04-18T04:46:32.765Z,19.30
2023-04-18T04:47:33.375Z,19.30
2023-04-18T04:48:33.945Z,19.30
2023-04-18T04:49:34.508Z,19.60
2023-04-18T04:50:35.084Z,19.20
2023-04-18T04:51:35.651Z,18.90
2023-04-18T04:52:36.229Z,19.40
2023-04-18T04:53:36.836Z,19.10
2023-04-18T04:54:36.941Z,19.40
2023-04-18T04:55:37.535Z,19.60
2023-04-18T04:56:38.131Z,20.70
2023-04-18T04:57:38.724Z,19.40
2023-04-18T04:58:39.324Z,19.60
2023-04-18T04:59:39.908Z,18.30
2023-04-18T05:00:40.496Z,18.90
2023-04-18T05:01:41.129Z,20.10
2023-04-18T05:02:41.288Z,18.80
2023-04-18T05:03:41.476Z,19.50
2023-04-18T05:04:41.567Z,19.50
2023-04-18T05:05:42.173Z,19.00
2023-04-18T05:06:42.773Z,19.70
2023-04-18T05:07:43.353Z,19.70
2023-04-18T05:08:43.927Z,20.00
2023-04-18T05:09:44.523Z,19.40
2023-04-18T05:10:45.113Z,18.70
2023-04-18T05:11:45.696Z,19.30
2023-04-18T05:12:46.287Z,19.60
2023-04-18T05:13:46.870Z,19.30
2023-04-18T05:14:47.447Z,19.10
2023-04-18T05:15:48.047Z,18.80
2023-04-18T05:16:48.641Z,20.70
2023-04-18T05:17:49.284Z,20.20
2023-04-18T05:18:49.305Z,19.90
2023-04-18T05:19:49.913Z,20.00
2023-04-18T05:20:50.520Z,19.10
2023-04-18T05:21:51.144Z,19.70
2023-04-18T05:22:51.758Z,20.50
2023-04-18T05:23:52.352Z,20.80
2023-04-18T05:24:52.945Z,19.90
2023-04-18T05:25:53.525Z,20.10
2023-04-18T05:26:54.099Z,20.80
2023-04-18T05:27:54.716Z,20.00
2023-04-18T05:28:55.295Z,20.40
2023-04-18T05:29:55.905Z,20.30
2023-04-18T05:30:56.514Z,19.80
2023-04-18T05:31:57.151Z,20.40
2023-04-18T05:32:57.750Z,21.40
2023-04-18T05:33:58.346Z,20.50
2023-04-18T05:34:58.923Z,22.70
2023-04-18T05:35:59.546Z,25.50
2023-04-18T05:37:00.139Z,21.80
2023-04-18T05:38:00.271Z,21.50
2023-04-18T05:39:00.848Z,20.60
2023-04-18T05:40:01.433Z,22.10
2023-04-18T05:41:02.027Z,24.20
2023-04-18T05:42:02.649Z,21.40
2023-04-18T05:43:02.658Z,20.30
2023-04-18T05:44:05.753Z,21.70
2023-04-18T05:45:03.637Z,20.70
2023-04-18T05:46:04.207Z,20.50
2023-04-18T05:47:05.451Z,21.30
2023-04-18T05:48:04.921Z,22.70
2023-04-18T05:49:04.957Z,21.40
2023-04-18T05:50:05.524Z,21.90
2023-04-18T05:51:06.106Z,20.10
2023-04-18T05:52:06.697Z,19.80
2023-04-18T05:53:07.301Z,20.90
2023-04-18T05:54:07.895Z,20.30
2023-04-18T05:55:08.482Z,20.80
2023-04-18T05:56:09.067Z,21.80
2023-04-18T05:57:09.673Z,19.70
2023-04-18T05:58:10.280Z,20.90
2023-04-18T05:59:10.875Z,20.20
2023-04-18T06:00:11.462Z,20.50
2023-04-18T06:01:12.062Z,20.30
2023-04-18T06:02:12.847Z,19.90
2023-04-18T06:03:13.115Z,20.50
2023-04-18T06:04:13.404Z,20.80
2023-04-18T06:05:14.136Z,19.60
2023-04-18T06:06:14.257Z,19.90
2023-04-18T06:07:14.836Z,20.00
2023-04-18T06:08:15.416Z,19.80
2023-04-18T06:09:16.002Z,20.60
2023-04-18T06:10:16.616Z,20.50
2023-04-18T06:11:17.203Z,20.60
2023-04-18T06:12:17.763Z,19.80
2023-04-18T06:13:18.346Z,21.40
2023-04-18T06:14:18.928Z,20.40
2023-04-18T06:15:19.522Z,19.20
2023-04-18T06:16:20.120Z,19.20
2023-04-18T06:17:20.152Z,19.40
2023-04-18T06:18:20.820Z,20.30
2023-04-18T06:19:20.825Z,19.20
2023-04-18T06:20:21.423Z,20.70
2023-04-18T06:21:22.019Z,19.70
2023-04-18T06:22:22.606Z,19.90
2023-04-18T06:23:23.202Z,19.40
2023-04-18T06:24:23.802Z,19.90
2023-04-18T06:25:24.377Z,21.10
2023-04-18T06:26:24.954Z,19.70
2023-04-18T06:27:31.213Z,20.70
2023-04-18T06:28:25.790Z,20.10
2023-04-18T06:29:26.363Z,20.50
2023-04-18T06:30:26.926Z,20.30
2023-04-18T06:31:27.517Z,19.00
2023-04-18T06:32:28.163Z,21.20
2023-04-18T06:33:28.235Z,19.80
2023-04-18T06:34:28.844Z,19.70
2023-04-18T06:35:29.417Z,20.00
2023-04-18T06:36:29.978Z,21.20
2023-04-18T06:37:30.538Z,20.50
2023-04-18T06:38:31.096Z,19.80
2023-04-18T06:39:31.691Z,19.90
2023-04-18T06:40:32.262Z,20.20
2023-04-18T06:41:32.840Z,20.50
2023-04-18T06:42:33.405Z,21.40
2023-04-18T06:43:33.973Z,21.00
2023-04-18T06:44:34.556Z,20.80
2023-04-18T06:45:35.152Z,20.30
2023-04-18T06:46:35.760Z,20.10
2023-04-18T06:47:36.399Z,20.40
2023-04-18T06:48:36.401Z,20.50
2023-04-18T06:49:36.973Z,20.10
2023-04-18T06:50:37.535Z,20.10
2023-04-18T06:51:38.142Z,21.10
2023-04-18T06:52:38.137Z,20.70
2023-04-18T06:53:38.698Z,21.60
2023-04-18T06:54:39.281Z,20.30
2023-04-18T06:55:39.857Z,20.60
2023-04-18T06:56:40.418Z,20.60
2023-04-18T06:57:41.006Z,20.80
2023-04-18T06:58:41.628Z,20.80
2023-04-18T06:59:42.224Z,21.20
2023-04-18T07:00:42.874Z,20.20
2023-04-18T07:01:43.008Z,21.20
2023-04-18T07:02:43.135Z,22.60
2023-04-18T07:03:43.452Z,21.90
2023-04-18T07:04:43.662Z,20.70
2023-04-18T07:05:43.773Z,22.50
2023-04-18T07:06:44.328Z,24.20
2023-04-18T07:07:44.901Z,25.10
2023-04-18T07:08:45.481Z,27.10
2023-04-18T07:09:46.060Z,26.20
2023-04-18T07:10:46.634Z,25.70
2023-04-18T07:11:47.215Z,22.40
2023-04-18T07:12:47.781Z,22.10
2023-04-18T07:13:48.364Z,23.10
2023-04-18T07:14:48.913Z,24.60
2023-04-18T07:15:49.492Z,24.30
2023-04-18T07:16:50.119Z,22.70
2023-04-18T07:17:50.193Z,23.10
2023-04-18T07:18:50.180Z,22.00
2023-04-18T07:19:50.758Z,26.30
2023-04-18T07:20:51.348Z,26.60
2023-04-18T07:21:51.921Z,25.30
2023-04-18T07:22:52.495Z,23.80
2023-04-18T07:23:53.085Z,21.70
2023-04-18T07:24:53.653Z,22.50
2023-04-18T07:25:54.230Z,22.80
2023-04-18T07:26:55.284Z,21.60
2023-04-18T07:27:55.349Z,22.70
2023-04-18T07:28:55.910Z,22.20
2023-04-18T07:29:56.467Z,21.80
2023-04-18T07:30:57.120Z,21.70
2023-04-18T07:31:57.130Z,22.60
2023-04-18T07:32:57.729Z,21.60
2023-04-18T07:33:57.750Z,20.90
2023-04-18T07:34:58.315Z,20.90
2023-04-18T07:35:58.872Z,22.00
2023-04-18T07:36:59.447Z,21.20
2023-04-18T07:38:00.026Z,21.10
2023-04-18T07:39:00.613Z,21.90
2023-04-18T07:40:01.190Z,20.80
2023-04-18T07:41:01.756Z,21.00
2023-04-18T07:42:02.301Z,20.40
2023-04-18T07:43:02.866Z,21.40
2023-04-18T07:44:03.478Z,20.10
2023-04-18T07:45:04.006Z,20.40
2023-04-18T07:46:04.601Z,20.50
2023-04-18T07:47:04.645Z,20.20
2023-04-18T07:48:05.273Z,20.50
2023-04-18T07:49:05.278Z,21.60
2023-04-18T07:50:05.859Z,20.40
2023-04-18T07:51:06.423Z,21.00
2023-04-18T07:52:06.985Z,21.10
2023-04-18T07:53:07.553Z,20.30
2023-04-18T07:54:08.144Z,20.50
2023-04-18T07:55:08.730Z,20.40
2023-04-18T07:56:08.808Z,21.00
2023-04-18T07:57:08.832Z,20.50
2023-04-18T07:58:08.858Z,21.00
2023-04-18T07:59:08.852Z,19.80
2023-04-18T08:00:09.566Z,20.00
2023-04-18T08:01:09.566Z,20.70
2023-04-18T08:02:09.699Z,19.70
2023-04-18T08:03:09.889Z,19.40
2023-04-18T08:04:10.208Z,19.50
2023-04-18T08:05:10.534Z,20.20
2023-04-18T08:06:10.655Z,20.20
2023-04-18T08:07:11.254Z,19.40
2023-04-18T08:08:11.279Z,19.10
2023-04-18T08:09:11.397Z,19.30
2023-04-18T08:10:11.519Z,20.50
2023-04-18T08:11:11.530Z,20.40
2023-04-18T08:12:11.526Z,19.20
2023-04-18T08:13:11.557Z,19.00
2023-04-18T08:14:11.578Z,19.80
2023-04-18T08:15:11.585Z,19.90
2023-04-18T08:16:13.158Z,19.50
2023-04-18T08:17:12.517Z,19.00
2023-04-18T08:18:12.537Z,18.70
2023-04-18T08:19:12.949Z,19.60
2023-04-18T08:20:12.593Z,18.90
2023-04-18T08:21:13.180Z,19.90
2023-04-18T08:22:13.766Z,21.50
2023-04-18T08:23:14.379Z,21.60
2023-04-18T08:24:14.377Z,20.70
2023-04-18T08:25:14.957Z,21.00
2023-04-18T08:26:15.594Z,21.00
2023-04-18T08:27:15.629Z,20.70
2023-04-18T08:28:15.646Z,20.60
2023-04-18T08:29:15.726Z,20.60
2023-04-18T08:30:15.854Z,20.00
2023-04-18T08:31:16.525Z,21.00
2023-04-18T08:32:16.557Z,20.80
2023-04-18T08:33:17.574Z,21.10
2023-04-18T08:34:17.038Z,21.30
2023-04-18T08:35:17.652Z,20.50
2023-04-18T08:36:17.667Z,19.70
2023-04-18T08:37:17.714Z,19.70
2023-04-18T08:38:17.710Z,20.50
2023-04-18T08:39:18.316Z,20.80
2023-04-18T08:40:18.337Z,20.70
2023-04-18T08:41:18.345Z,20.70
2023-04-18T08:42:18.949Z,21.40
2023-04-18T08:43:18.953Z,19.50
2023-04-18T08:44:19.570Z,20.10
2023-04-18T08:45:19.594Z,21.40
2023-04-18T08:46:19.739Z,20.50
2023-04-18T08:47:19.807Z,20.10
2023-04-18T08:48:19.858Z,20.20
2023-04-18T08:49:19.880Z,21.30
2023-04-18T08:50:20.490Z,20.50
2023-04-18T08:51:20.522Z,20.70
2023-04-18T08:52:21.124Z,19.30
2023-04-18T08:53:21.146Z,20.20
2023-04-18T08:54:21.177Z,21.30
2023-04-18T08:55:21.221Z,19.90
2023-04-18T08:56:21.256Z,18.40
2023-04-18T08:57:21.276Z,20.50
2023-04-18T08:58:21.874Z,20.40
2023-04-18T08:59:22.480Z,18.90
2023-04-18T09:00:22.520Z,19.90
2023-04-18T09:01:22.579Z,20.00
2023-04-18T09:02:22.688Z,19.50
2023-04-18T09:03:22.841Z,19.70
2023-04-18T09:04:22.938Z,19.80
2023-04-18T09:05:23.024Z,19.60
2023-04-18T09:06:24.016Z,19.70
2023-04-18T09:07:24.174Z,19.20
2023-04-18T09:08:24.760Z,19.40
2023-04-18T09:09:25.363Z,18.00
2023-04-18T09:10:25.970Z,18.60
2023-04-18T09:11:26.172Z,19.00
2023-04-18T09:12:26.238Z,19.50
2023-04-18T09:13:26.275Z,18.20
2023-04-18T09:14:26.313Z,18.40
2023-04-18T09:15:26.330Z,17.90
2023-04-18T09:16:26.369Z,18.90
2023-04-18T09:17:26.461Z,17.90
2023-04-18T09:18:26.466Z,18.20
2023-04-18T09:19:27.053Z,18.20
2023-04-18T09:20:27.642Z,17.70
2023-04-18T09:21:27.651Z,18.10
2023-04-18T09:22:27.673Z,17.70
2023-04-18T09:23:27.658Z,17.90
2023-04-18T09:24:28.243Z,16.90
2023-04-18T09:25:28.250Z,17.10
2023-04-18T09:26:28.400Z,16.50
2023-04-18T09:27:28.423Z,16.60
2023-04-18T09:28:28.465Z,16.80
2023-04-18T09:29:28.485Z,16.00
2023-04-18T09:30:28.652Z,15.80
2023-04-18T09:31:28.712Z,15.50
2023-04-18T09:32:28.805Z,15.80
2023-04-18T09:33:28.816Z,15.50
2023-04-18T09:34:29.396Z,15.40
2023-04-18T09:35:29.389Z,14.40
2023-04-18T09:36:30.017Z,15.20
2023-04-18T09:37:30.050Z,16.40
2023-04-18T09:38:30.060Z,15.40
2023-04-18T09:39:30.631Z,15.10
2023-04-18T09:40:30.650Z,15.40
2023-04-18T09:41:30.630Z,16.00
2023-04-18T09:42:31.219Z,14.70
2023-04-18T09:43:31.209Z,15.00
2023-04-18T09:44:31.773Z,14.80
2023-04-18T09:45:32.344Z,15.10
2023-04-18T09:46:32.944Z,14.90
2023-04-18T09:47:32.997Z,14.50
2023-04-18T09:48:33.066Z,14.50
2023-04-18T09:49:33.096Z,14.40
2023-04-18T09:50:33.092Z,15.30
2023-04-18T09:51:33.078Z,15.50
2023-04-18T09:52:33.640Z,14.50
2023-04-18T09:53:33.636Z,13.50
2023-04-18T09:54:34.211Z,14.00
2023-04-18T09:55:34.779Z,14.30
2023-04-18T09:56:34.781Z,14.50
2023-04-18T09:57:34.783Z,14.30
2023-04-18T09:58:34.774Z,13.90
2023-04-18T09:59:34.773Z,14.80
2023-04-18T10:00:34.767Z,13.70
2023-04-18T10:01:34.859Z,14.10
2023-04-18T10:02:35.019Z,14.80
2023-04-18T10:03:35.269Z,13.90
2023-04-18T10:04:35.486Z,14.70
2023-04-18T10:05:35.721Z,13.60
2023-04-18T10:06:35.718Z,13.90
2023-04-18T10:07:36.287Z,13.80
2023-04-18T10:08:36.858Z,13.70
2023-04-18T10:09:36.839Z,14.10
2023-04-18T10:10:38.751Z,13.00
2023-04-18T10:11:37.326Z,12.60
2023-04-18T10:12:37.332Z,13.30
2023-04-18T10:13:37.315Z,13.10
2023-04-18T10:14:37.295Z,12.00
2023-04-18T10:15:37.357Z,12.60
2023-04-18T10:16:37.426Z,11.70
2023-04-18T10:17:37.451Z,11.50
2023-04-18T10:18:37.508Z,11.20
2023-04-18T10:19:37.520Z,11.30
2023-04-18T10:20:37.524Z,12.10
2023-04-18T10:21:37.523Z,11.90
2023-04-18T10:22:37.473Z,11.30
2023-04-18T10:23:38.017Z,11.90
2023-04-18T10:24:38.576Z,12.00
2023-04-18T10:25:38.537Z,12.20
2023-04-18T10:26:38.527Z,12.60
2023-04-18T10:27:38.510Z,11.60
2023-04-18T10:28:39.491Z,11.60
2023-04-18T10:29:38.906Z,11.90
2023-04-18T10:30:38.871Z,11.30
2023-04-18T10:31:39.528Z,11.50
2023-04-18T10:32:39.606Z,11.40
2023-04-18T10:33:41.994Z,10.70
2023-04-18T10:34:39.618Z,11.60
2023-04-18T10:35:41.393Z,11.50
2023-04-18T10:36:40.293Z,10.80
2023-04-18T10:37:40.890Z,12.20
2023-04-18T10:38:40.865Z,12.00
2023-04-18T10:39:40.828Z,11.20
2023-04-18T10:40:41.403Z,10.40
2023-04-18T10:41:41.381Z,11.20
2023-04-18T10:42:41.378Z,10.70
2023-04-18T10:43:41.365Z,11.00
2023-04-18T10:44:41.362Z,11.10
2023-04-18T10:45:41.345Z,10.00
2023-04-18T10:46:41.350Z,11.00
2023-04-18T10:47:41.441Z,10.60
2023-04-18T10:48:41.480Z,10.50
2023-04-18T10:49:41.433Z,10.50
2023-04-18T10:50:41.987Z,10.60
2023-04-18T10:51:41.958Z,10.40
2023-04-18T10:52:42.505Z,10.10
2023-04-18T10:53:43.037Z,9.90
2023-04-18T10:54:43.603Z,10.40
2023-04-18T10:55:43.578Z,10.30
2023-04-18T10:56:43.574Z,10.00
2023-04-18T10:57:43.547Z,9.80
2023-04-18T10:58:44.056Z,10.60
2023-04-18T10:59:44.596Z,9.50
2023-04-18T11:00:45.125Z,10.00
2023-04-18T11:01:45.116Z,9.80
2023-04-18T11:02:45.233Z,10.40
2023-04-18T11:03:45.353Z,10.30
2023-04-18T11:04:45.331Z,10.10
2023-04-18T11:05:45.872Z,10.20
2023-04-18T11:06:46.397Z,10.20
2023-04-18T11:07:46.368Z,10.30
2023-04-18T11:08:46.938Z,10.20
2023-04-18T11:09:46.887Z,10.10
2023-04-18T11:10:47.433Z,10.10
2023-04-18T11:11:47.951Z,9.30
2023-04-18T11:12:48.480Z,9.60
2023-04-18T11:13:49.004Z,9.00
2023-04-18T11:14:49.565Z,9.90
2023-04-18T11:15:50.111Z,9.70
2023-04-18T11:16:50.754Z,8.80
2023-04-18T11:17:50.718Z,9.90
2023-04-18T11:18:50.703Z,9.60
2023-04-18T11:19:51.239Z,9.50
2023-04-18T11:20:51.177Z,9.40
2023-04-18T11:21:51.708Z,9.10
2023-04-18T11:22:52.235Z,9.60
2023-04-18T11:23:52.840Z,9.70
2023-04-18T11:24:52.849Z,10.00
2023-04-18T11:25:53.372Z,9.80
2023-04-18T11:26:53.959Z,9.80
2023-04-18T11:27:53.887Z,9.20
2023-04-18T11:28:53.869Z,9.80
2023-04-18T11:29:54.414Z,9.80
2023-04-18T11:30:54.921Z,9.80
2023-04-18T11:31:58.310Z,9.70
2023-04-18T11:32:55.252Z,9.70
2023-04-18T11:33:55.294Z,10.00
2023-04-18T11:34:55.279Z,10.00
2023-04-18T11:35:55.796Z,9.90
2023-04-18T11:36:56.313Z,9.40
2023-04-18T11:37:56.850Z,9.60
2023-04-18T11:38:57.372Z,9.00
2023-04-18T11:39:57.866Z,9.40
2023-04-18T11:40:58.384Z,9.10
2023-04-18T11:41:58.852Z,8.50
2023-04-18T11:42:59.357Z,8.90
2023-04-18T11:43:59.885Z,9.20
2023-04-18T11:45:00.369Z,9.10
2023-04-18T11:46:00.874Z,9.10
2023-04-18T11:47:01.383Z,8.40
2023-04-18T11:48:01.947Z,8.20
2023-04-18T11:49:01.853Z,9.00
2023-04-18T11:50:02.299Z,8.20
2023-04-18T11:51:02.761Z,8.00
2023-04-18T11:52:03.236Z,8.70
2023-04-18T11:53:03.237Z,8.50
2023-04-18T11:54:03.736Z,8.40
2023-04-18T11:55:04.191Z,7.90
2023-04-18T11:56:04.625Z,8.00
2023-04-18T11:57:05.079Z,8.20
2023-04-18T11:58:05.510Z,7.60
2023-04-18T11:59:05.989Z,8.30
2023-04-18T12:00:06.419Z,8.10
2023-04-18T12:01:06.860Z,7.50
2023-04-18T12:02:16.267Z,8.10
2023-04-18T12:03:07.549Z,7.90
2023-04-18T12:04:08.037Z,7.10
2023-04-18T12:05:08.085Z,7.60
2023-04-18T12:06:07.779Z,7.60
2023-04-18T12:07:07.726Z,7.70
2023-04-18T12:08:08.182Z,7.30
2023-04-18T12:09:08.616Z,8.40
2023-04-18T12:10:09.082Z,7.90
2023-04-18T12:11:09.544Z,7.70
2023-04-18T12:12:10.012Z,8.20
2023-04-18T12:13:10.456Z,7.60
2023-04-18T12:14:10.901Z,7.40
2023-04-18T12:15:11.337Z,7.90
2023-04-18T12:16:11.812Z,7.90
2023-04-18T12:17:12.280Z,7.20
2023-04-18T12:18:12.739Z,6.80
2023-04-18T12:19:13.168Z,7.20
2023-04-18T12:20:13.616Z,6.50
2023-04-18T12:21:14.096Z,7.20
2023-04-18T12:22:14.527Z,7.20
2023-04-18T12:23:14.968Z,7.30
2023-04-18T12:24:15.620Z,6.80
2023-04-18T12:25:15.670Z,6.50
2023-04-18T12:26:16.100Z,6.60
2023-04-18T12:27:16.523Z,6.50
2023-04-18T12:28:16.954Z,6.90
2023-04-18T12:29:17.372Z,6.30
2023-04-18T12:30:17.805Z,6.50
2023-04-18T12:31:18.321Z,6.70
2023-04-18T12:32:18.168Z,6.30
2023-04-18T12:33:18.580Z,6.30
2023-04-18T12:34:19.010Z,6.50
2023-04-18T12:35:19.520Z,5.50
2023-04-18T12:36:20.017Z,5.60
2023-04-18T12:37:19.924Z,5.70
2023-04-18T12:38:20.378Z,6.50
2023-04-18T12:39:20.852Z,6.70
2023-04-18T12:40:21.258Z,6.20
2023-04-18T12:41:21.690Z,6.50
2023-04-18T12:42:22.115Z,6.10
2023-04-18T12:43:22.539Z,6.40
2023-04-18T12:44:22.965Z,6.70
2023-04-18T12:45:23.406Z,6.40
2023-04-18T12:46:24.004Z,6.80
2023-04-18T12:47:23.895Z,6.60
2023-04-18T12:48:23.813Z,6.70
2023-04-18T12:49:24.242Z,6.20
2023-04-18T12:50:24.797Z,6.10
2023-04-18T12:51:24.601Z,6.40
2023-04-18T12:52:25.058Z,5.90
2023-04-18T12:53:25.505Z,6.10
2023-04-18T12:54:25.947Z,6.20
2023-04-18T12:55:26.391Z,6.10
2023-04-18T12:56:26.845Z,6.10
2023-04-18T12:57:27.297Z,6.10
2023-04-18T12:58:27.721Z,5.60
2023-04-18T12:59:28.143Z,5.70
2023-04-18T13:00:28.551Z,5.60
2023-04-18T13:01:29.062Z,6.10
2023-04-18T13:02:29.220Z,5.70
2023-04-18T13:03:29.326Z,5.10
2023-04-18T13:04:29.576Z,5.90
2023-04-18T13:05:33.039Z,6.10